createdAt,value
2018-08-10T00:02:44.639Z,18.50
2018-08-10T00:05:15.381Z,18.50
2018-08-10T00:07:45.112Z,18.60
2018-08-10T00:10:18.442Z,18.30
2018-08-10T00:12:58.780Z,18.10
2018-08-10T00:15:28.594Z,18.10
2018-08-10T00:18:09.254Z,18.00
2018-08-10T00:20:39.089Z,18.40
2018-08-10T00:23:14.925Z,18.30
2018-08-10T00:25:45.141Z,18.20
2018-08-10T00:28:14.910Z,18.20
2018-08-10T00:30:48.618Z,18.60
2018-08-10T00:33:18.318Z,18.40
2018-08-10T00:36:12.536Z,18.10
2018-08-10T00:38:42.690Z,18.30
2018-08-10T00:41:12.466Z,18.30
2018-08-10T00:43:46.564Z,18.30
2018-08-10T00:46:16.322Z,18.20
2018-08-10T00:55:12.150Z,17.80
2018-08-10T00:57:52.381Z,17.80
2018-08-10T01:00:24.167Z,18.00
2018-08-10T01:03:21.031Z,17.90
2018-08-10T01:06:13.066Z,18.20
2018-08-10T01:08:42.930Z,17.90
2018-08-10T01:11:13.569Z,17.80
2018-08-10T01:13:46.651Z,18.20
2018-08-10T01:16:32.159Z,18.20
2018-08-10T01:19:01.955Z,18.20
2018-08-10T01:21:56.965Z,18.20
2018-08-10T01:24:26.706Z,18.10
2018-08-10T01:27:14.472Z,18.20
2018-08-10T01:29:44.941Z,18.30
2018-08-10T01:32:14.750Z,17.90
2018-08-10T01:34:44.465Z,18.20
2018-08-10T01:37:14.214Z,18.20
2018-08-10T01:39:43.917Z,18.20
2018-08-10T01:42:13.695Z,18.30
2018-08-10T01:44:43.438Z,18.10
2018-08-10T01:47:13.093Z,17.90
2018-08-10T01:49:42.769Z,17.90
2018-08-10T01:52:12.542Z,18.20
2018-08-10T01:54:42.245Z,17.80
2018-08-10T01:57:12.022Z,17.90
2018-08-10T02:00:02.812Z,18.10
2018-08-10T02:02:32.454Z,18.10
2018-08-10T02:05:02.194Z,17.70
2018-08-10T02:07:31.967Z,17.80
2018-08-10T02:10:01.635Z,17.90
2018-08-10T02:15:47.536Z,17.60
2018-08-10T02:18:17.226Z,17.70
2018-08-10T02:21:11.151Z,17.70
2018-08-10T02:23:40.810Z,17.90
2018-08-10T02:29:10.946Z,17.80
2018-08-10T02:31:40.676Z,17.80
2018-08-10T02:34:10.343Z,18.00
2018-08-10T02:36:40.093Z,17.70
2018-08-10T02:39:11.950Z,17.60
2018-08-10T02:41:41.665Z,17.90
2018-08-10T02:44:34.409Z,17.80
2018-08-10T02:47:04.193Z,17.80
2018-08-10T02:49:33.854Z,17.80
2018-08-10T02:52:57.943Z,17.90
2018-08-10T02:55:27.707Z,17.80
2018-08-10T02:57:57.477Z,17.60
2018-08-10T03:00:27.160Z,17.20
2018-08-10T03:03:21.210Z,17.40
2018-08-10T03:09:18.770Z,17.30
2018-08-10T03:11:52.470Z,17.80
2018-08-10T03:14:22.150Z,17.60
2018-08-10T03:16:51.807Z,17.60
2018-08-10T03:19:21.522Z,17.70
2018-08-10T03:21:51.551Z,17.30
2018-08-10T03:27:22.237Z,17.20
2018-08-10T03:29:51.970Z,17.70
2018-08-10T03:32:21.734Z,17.70
2018-08-10T03:34:51.420Z,17.50
2018-08-10T03:37:22.171Z,17.70
2018-08-10T03:40:19.747Z,17.80
2018-08-10T03:42:50.112Z,17.50
2018-08-10T03:45:19.855Z,17.90
2018-08-10T03:47:52.874Z,17.90
2018-08-10T03:50:22.572Z,17.80
2018-08-10T03:52:52.268Z,17.70
2018-08-10T03:55:22.003Z,17.80
2018-08-10T03:57:52.045Z,17.60
2018-08-10T04:00:21.783Z,17.80
2018-08-10T04:02:51.749Z,17.40
2018-08-10T04:05:21.402Z,17.40
2018-08-10T04:07:51.862Z,17.30
2018-08-10T04:10:21.738Z,17.20
2018-08-10T04:12:51.624Z,17.30
2018-08-10T05:01:05.506Z,17.40
2018-08-10T05:03:35.401Z,17.30
2018-08-10T05:09:10.625Z,17.40
2018-08-10T05:14:40.562Z,17.10
2018-08-10T05:17:10.399Z,17.10
2018-08-10T05:19:40.457Z,17.20
2018-08-10T05:22:10.474Z,17.10
2018-08-10T05:24:40.270Z,17.10
2018-08-10T05:27:10.011Z,17.20
2018-08-10T05:29:40.334Z,16.90
2018-08-10T05:32:10.246Z,17.20
2018-08-10T05:34:39.991Z,17.30
2018-08-10T05:37:10.168Z,17.30
2018-08-10T05:39:39.986Z,17.20
2018-08-10T05:42:15.821Z,16.90
2018-08-10T05:44:45.617Z,16.90
2018-08-10T05:47:16.532Z,17.10
2018-08-10T05:49:47.147Z,16.90
2018-08-10T05:52:43.405Z,17.10
2018-08-10T05:55:17.039Z,17.00
2018-08-10T05:57:46.795Z,17.10
2018-08-10T06:00:16.513Z,17.10
2018-08-10T06:02:46.345Z,17.10
2018-08-10T06:05:16.202Z,17.10
2018-08-10T06:07:46.384Z,17.00
2018-08-10T06:10:16.230Z,16.90
2018-08-10T06:13:02.131Z,17.00
2018-08-10T06:15:31.877Z,17.20
2018-08-10T06:18:01.572Z,17.00
2018-08-10T06:20:31.758Z,17.10
2018-08-10T06:23:02.043Z,16.90
2018-08-10T06:25:55.052Z,17.20
2018-08-10T06:28:24.855Z,17.10
2018-08-10T06:33:59.624Z,17.20
2018-08-10T06:36:34.159Z,17.20
2018-08-10T06:39:04.195Z,17.30
2018-08-10T06:41:33.998Z,17.10
2018-08-10T06:44:04.018Z,17.10
2018-08-10T06:46:55.887Z,17.30
2018-08-10T06:49:25.820Z,17.40
2018-08-10T06:51:55.626Z,17.30
2018-08-10T07:08:22.964Z,17.50
2018-08-10T07:10:52.725Z,17.60
2018-08-10T07:13:32.878Z,17.60
2018-08-10T07:19:03.015Z,17.60
2018-08-10T07:21:32.952Z,17.90
2018-08-10T07:24:02.721Z,17.90
2018-08-10T07:26:33.292Z,18.20
2018-08-10T07:30:11.128Z,18.00
2018-08-10T07:33:02.818Z,18.00
2018-08-10T07:35:33.413Z,18.10
2018-08-10T07:38:03.553Z,18.10
2018-08-10T07:40:33.374Z,18.00
2018-08-10T07:43:03.155Z,18.10
2018-08-10T07:45:33.226Z,18.40
2018-08-10T07:48:18.874Z,18.30
2018-08-10T07:50:49.055Z,18.50
2018-08-10T07:53:18.934Z,18.50
2018-08-10T07:55:48.673Z,18.60
2018-08-10T07:58:18.504Z,18.90
2018-08-10T08:00:51.850Z,19.00
2018-08-10T08:06:21.890Z,19.00
2018-08-10T08:08:51.664Z,19.10
2018-08-10T08:11:21.703Z,19.20
2018-08-10T08:13:51.568Z,19.30
2018-08-10T08:16:21.546Z,19.20
2018-08-10T08:18:51.412Z,19.20
2018-08-10T08:21:21.363Z,19.20
2018-08-10T08:23:51.163Z,19.80
2018-08-10T08:26:50.879Z,19.70
2018-08-10T08:32:30.231Z,20.00
2018-08-10T08:35:00.664Z,20.20
2018-08-10T08:37:30.473Z,20.20
2018-08-10T08:40:15.858Z,20.50
2018-08-10T08:46:09.954Z,20.60
2018-08-10T08:55:18.917Z,21.00
2018-08-10T08:57:48.783Z,21.10
2018-08-10T09:00:31.664Z,21.20
2018-08-10T09:03:01.421Z,21.30
2018-08-10T09:05:31.193Z,21.10
2018-08-10T09:08:27.629Z,21.20
2018-08-10T09:10:59.457Z,21.30
2018-08-10T09:14:46.157Z,21.20
2018-08-10T09:20:23.741Z,21.30
2018-08-10T09:22:59.510Z,21.50
2018-08-10T09:25:29.371Z,21.20
2018-08-10T09:27:59.354Z,21.40
2018-08-10T09:30:29.576Z,21.40
2018-08-10T09:33:00.675Z,21.50
2018-08-10T09:35:30.505Z,21.60
2018-08-10T09:38:00.415Z,21.80
2018-08-10T09:40:30.470Z,21.90
2018-08-10T09:46:11.615Z,21.90
2018-08-10T09:48:41.954Z,21.80
2018-08-10T09:51:11.656Z,22.10
2018-08-10T09:53:41.489Z,22.00
2018-08-10T09:56:11.251Z,22.10
2018-08-10T09:58:41.182Z,22.00
2018-08-10T10:01:40.571Z,22.20
2018-08-10T10:04:10.482Z,22.30
2018-08-10T10:06:40.394Z,22.60
2018-08-10T10:09:11.548Z,22.50
2018-08-10T10:11:41.351Z,22.80
2018-08-10T10:14:11.230Z,22.90
2018-08-10T10:16:41.090Z,22.80
2018-08-10T10:19:36.211Z,22.60
2018-08-10T10:22:06.247Z,22.40
2018-08-10T10:24:36.166Z,22.10
2018-08-10T10:27:31.466Z,22.40
2018-08-10T10:30:01.465Z,22.60
2018-08-10T10:32:32.005Z,22.80
2018-08-10T10:35:01.924Z,22.70
2018-08-10T10:37:39.822Z,22.10
2018-08-10T10:40:10.977Z,22.40
2018-08-10T10:42:40.962Z,22.40
2018-08-10T10:45:13.328Z,22.70
2018-08-10T10:48:00.792Z,22.90
2018-08-10T10:50:30.792Z,23.10
2018-08-10T10:53:06.008Z,22.80
2018-08-10T10:55:39.156Z,22.90
2018-08-10T10:58:32.867Z,23.10
2018-08-10T11:01:10.859Z,23.00
2018-08-10T11:03:40.769Z,23.30
2018-08-10T11:06:11.409Z,23.20
2018-08-10T11:08:41.258Z,23.20
2018-08-10T11:14:12.058Z,22.90
2018-08-10T11:16:41.958Z,22.70
2018-08-10T11:19:34.590Z,22.80
2018-08-10T11:22:16.047Z,23.00
2018-08-10T11:27:46.085Z,23.30
2018-08-10T11:30:15.886Z,23.70
2018-08-10T11:32:45.668Z,24.10
2018-08-10T11:35:15.855Z,24.20
2018-08-10T11:37:45.870Z,24.60
2018-08-10T11:40:16.102Z,25.00
2018-08-10T11:42:45.925Z,25.00
2018-08-10T11:45:42.007Z,24.80
2018-08-10T11:48:11.743Z,24.90
2018-08-10T12:04:35.085Z,25.20
2018-08-10T12:07:05.042Z,25.10
2018-08-10T12:09:40.870Z,24.90
2018-08-10T12:12:10.618Z,24.90
2018-08-10T12:14:41.146Z,24.90
2018-08-10T12:20:11.544Z,25.10
2018-08-10T12:22:42.275Z,24.80
2018-08-10T12:25:11.985Z,25.10
2018-08-10T12:28:07.462Z,25.30
2018-08-10T12:30:41.288Z,25.60
2018-08-10T12:33:10.959Z,25.30
2018-08-10T12:35:41.053Z,25.30
2018-08-10T12:38:10.982Z,25.00
2018-08-10T12:43:51.977Z,25.20
2018-08-10T12:49:41.152Z,24.90
2018-08-10T12:52:12.282Z,24.60
2018-08-10T12:54:42.948Z,24.90
2018-08-10T12:57:42.645Z,25.10
2018-08-10T13:00:14.458Z,25.10
2018-08-10T13:02:44.874Z,25.20
2018-08-10T13:08:42.501Z,25.30
2018-08-10T13:11:44.139Z,25.60
2018-08-10T13:14:40.428Z,25.60
2018-08-10T13:17:10.644Z,25.80
2018-08-10T13:19:40.804Z,25.50
2018-08-10T13:57:15.144Z,25.00
2018-08-10T13:59:51.052Z,26.60
2018-08-10T14:02:26.803Z,26.60
2018-08-10T14:04:56.754Z,26.60
2018-08-10T14:07:28.707Z,26.60
2018-08-10T14:09:58.575Z,26.70
2018-08-10T14:12:28.318Z,26.70
2018-08-10T14:14:58.079Z,26.80
2018-08-10T14:17:29.053Z,26.60
2018-08-10T14:19:59.016Z,26.40
2018-08-10T14:22:29.034Z,26.60
2018-08-10T14:24:58.878Z,26.90
2018-08-10T14:27:28.957Z,26.80
2018-08-10T14:29:58.718Z,27.00
2018-08-10T14:32:28.870Z,26.70
2018-08-10T14:34:59.242Z,26.90
2018-08-10T14:37:28.909Z,27.10
2018-08-10T14:39:58.972Z,27.10
2018-08-10T14:42:28.855Z,27.10
2018-08-10T14:45:01.372Z,27.00
2018-08-10T14:47:33.089Z,27.20
2018-08-10T14:50:03.306Z,27.00
2018-08-10T14:52:33.057Z,26.90
2018-08-10T14:55:02.982Z,27.00
2018-08-10T14:57:34.306Z,27.00
2018-08-10T15:00:12.552Z,27.20
2018-08-10T15:02:42.480Z,27.10
2018-08-10T15:05:12.893Z,27.10
2018-08-10T15:07:43.289Z,27.10
2018-08-10T15:13:09.859Z,26.70
2018-08-10T15:15:39.792Z,26.90
2018-08-10T15:18:09.929Z,26.80
2018-08-10T15:20:39.701Z,27.10
2018-08-10T15:23:09.571Z,27.20
2018-08-10T15:25:39.783Z,27.30
2018-08-10T15:28:09.940Z,27.30
2018-08-10T15:30:39.998Z,26.90
2018-08-10T15:33:12.670Z,26.60
2018-08-10T15:35:42.757Z,26.60
2018-08-10T15:38:12.578Z,26.70
2018-08-10T15:40:42.384Z,26.60
2018-08-10T15:43:12.316Z,26.50
2018-08-10T15:45:44.779Z,26.70
2018-08-10T15:48:15.173Z,26.60
2018-08-10T15:50:46.030Z,26.60
2018-08-10T15:53:17.535Z,26.20
2018-08-10T15:55:47.547Z,26.40
2018-08-10T15:58:17.587Z,25.90
2018-08-10T16:00:47.509Z,26.30
2018-08-10T16:03:18.281Z,26.40
2018-08-10T16:05:48.321Z,25.80
2018-08-10T16:08:19.061Z,25.90
2018-08-10T16:10:48.920Z,26.10
2018-08-10T16:13:18.771Z,26.00
2018-08-10T16:15:48.534Z,26.10
2018-08-10T16:18:19.034Z,26.10
2018-08-10T16:20:49.658Z,26.10
2018-08-10T16:23:19.629Z,26.10
2018-08-10T16:25:52.055Z,26.30
2018-08-10T16:28:22.372Z,26.40
2018-08-10T16:30:52.293Z,26.20
2018-08-10T16:33:22.353Z,26.10
2018-08-10T16:35:52.145Z,26.40
2018-08-10T16:38:22.473Z,26.20
2018-08-10T16:40:53.174Z,26.10
2018-08-10T16:43:23.033Z,25.80
2018-08-10T16:46:14.635Z,25.00
2018-08-10T16:49:06.094Z,25.30
2018-08-10T16:51:47.430Z,25.50
2018-08-10T16:54:17.278Z,25.40
2018-08-10T16:56:47.235Z,25.30
2018-08-10T16:59:17.143Z,25.30
2018-08-10T17:02:11.555Z,25.50
2018-08-10T17:04:45.565Z,25.60
2018-08-10T17:07:15.415Z,25.20
2018-08-10T17:09:45.279Z,25.10
2018-08-10T17:12:15.219Z,25.10
2018-08-10T17:14:45.164Z,25.10
2018-08-10T17:17:15.050Z,24.90
2018-08-10T17:19:44.746Z,25.00
2018-08-10T17:22:14.395Z,25.00
2018-08-10T17:24:44.089Z,24.90
2018-08-10T17:27:13.812Z,25.20
2018-08-10T17:29:43.624Z,25.30
2018-08-10T17:32:13.889Z,25.10
2018-08-10T17:34:43.965Z,25.20
2018-08-10T17:37:13.649Z,24.80
2018-08-10T17:39:43.606Z,25.10
2018-08-10T17:42:13.398Z,24.80
2018-08-10T17:44:43.353Z,24.90
2018-08-10T17:47:13.338Z,24.90
2018-08-10T17:49:43.349Z,24.80
2018-08-10T17:52:13.491Z,24.70
2018-08-10T17:54:43.247Z,24.50
2018-08-10T17:57:13.066Z,24.20
2018-08-10T17:59:42.840Z,24.40
2018-08-10T18:02:13.211Z,24.30
2018-08-10T18:04:43.227Z,24.30
2018-08-10T18:07:13.082Z,23.90
2018-08-10T18:09:43.006Z,23.80
2018-08-10T18:12:12.903Z,24.00
2018-08-10T18:14:42.783Z,23.80
2018-08-10T18:17:12.557Z,23.80
2018-08-10T18:19:42.811Z,23.90
2018-08-10T18:22:12.505Z,23.80
2018-08-10T18:25:05.978Z,23.70
2018-08-10T18:27:35.992Z,23.70
2018-08-10T18:30:09.995Z,23.60
2018-08-10T18:32:40.098Z,23.60
2018-08-10T18:35:11.535Z,23.50
2018-08-10T18:37:42.566Z,23.40
2018-08-10T18:40:13.738Z,23.30
2018-08-10T18:42:44.994Z,23.00
2018-08-10T18:45:16.701Z,23.00
2018-08-10T18:47:46.582Z,23.20
2018-08-10T18:50:20.923Z,22.90
2018-08-10T18:52:51.587Z,22.70
2018-08-10T18:55:23.123Z,22.90
2018-08-10T18:57:53.328Z,22.90
2018-08-10T19:00:26.902Z,22.80
2018-08-10T19:02:56.860Z,22.80
2018-08-10T19:05:26.824Z,22.90
2018-08-10T19:07:56.645Z,22.80
2018-08-10T19:10:27.933Z,22.70
2018-08-10T19:12:57.647Z,22.70
2018-08-10T19:15:27.901Z,22.70
2018-08-10T19:17:58.017Z,22.50
2018-08-10T19:20:27.757Z,22.40
2018-08-10T19:22:57.726Z,22.30
2018-08-10T19:25:27.684Z,22.10
2018-08-10T19:27:57.584Z,21.80
2018-08-10T19:30:27.657Z,21.90
2018-08-10T19:32:57.514Z,21.50
2018-08-10T19:35:27.179Z,21.50
2018-08-10T19:37:56.814Z,21.60
2018-08-10T19:40:27.134Z,21.00
2018-08-10T19:42:57.109Z,21.00
2018-08-10T19:45:27.859Z,21.00
2018-08-10T19:47:58.502Z,20.80
2018-08-10T19:50:29.146Z,20.70
2018-08-10T19:52:59.053Z,20.60
2018-08-10T19:55:29.722Z,20.70
2018-08-10T19:57:59.502Z,20.50
2018-08-10T20:00:29.533Z,20.50
2018-08-10T20:03:00.018Z,20.40
2018-08-10T20:05:29.936Z,20.60
2018-08-10T20:08:00.651Z,20.50
2018-08-10T20:10:31.066Z,19.90
2018-08-10T20:13:01.099Z,20.00
2018-08-10T20:15:31.481Z,19.60
2018-08-10T20:18:01.541Z,19.50
2018-08-10T20:20:32.553Z,19.20
2018-08-10T20:23:03.004Z,19.00
2018-08-10T20:25:32.845Z,19.00
2018-08-10T20:28:02.935Z,19.00
2018-08-10T20:30:32.918Z,19.00
2018-08-10T20:33:02.682Z,18.90
2018-08-10T20:35:32.771Z,18.70
2018-08-10T20:38:02.771Z,18.70
2018-08-10T20:40:32.566Z,18.70
2018-08-10T20:43:02.409Z,18.50
2018-08-10T20:45:33.724Z,18.60
2018-08-10T20:48:03.571Z,18.40
2018-08-10T20:50:34.017Z,18.20
2018-08-10T20:53:03.906Z,18.10
2018-08-10T20:55:33.740Z,18.00
2018-08-10T20:58:03.462Z,18.00
2018-08-10T21:00:33.248Z,17.90
2018-08-10T21:03:03.231Z,18.00
2018-08-10T21:05:38.432Z,18.00
2018-08-10T21:08:08.236Z,18.00
2018-08-10T21:10:38.043Z,18.00
2018-08-10T21:13:07.836Z,18.00
2018-08-10T21:15:37.790Z,18.30
2018-08-10T21:18:08.046Z,18.30
2018-08-10T21:20:38.531Z,18.00
2018-08-10T21:23:08.419Z,18.30
2018-08-10T21:25:38.034Z,18.50
2018-08-10T21:28:22.378Z,18.80
2018-08-10T21:30:52.254Z,19.00
2018-08-10T21:33:22.118Z,19.00
2018-08-10T21:35:54.055Z,18.80
2018-08-10T21:38:23.793Z,18.90
2018-08-10T21:40:53.541Z,18.80
2018-08-10T21:43:23.641Z,18.60
2018-08-10T21:45:53.452Z,18.50
2018-08-10T21:48:23.356Z,18.90
2018-08-10T21:50:53.377Z,19.00
2018-08-10T21:53:23.165Z,18.70
2018-08-10T21:55:52.837Z,18.70
2018-08-10T21:59:54.072Z,18.70
2018-08-10T22:02:25.442Z,19.00
2018-08-10T22:04:56.322Z,18.70
2018-08-10T22:07:26.899Z,18.70
2018-08-10T22:09:56.739Z,18.50
2018-08-10T22:12:26.462Z,18.30
2018-08-10T22:15:01.265Z,18.80
2018-08-10T22:17:36.562Z,18.80
2018-08-10T22:20:06.764Z,18.90
2018-08-10T22:22:36.730Z,18.70
2018-08-10T22:25:06.641Z,19.00
2018-08-10T22:27:36.528Z,18.90
2018-08-10T22:30:07.206Z,18.80
2018-08-10T22:32:37.163Z,19.30
2018-08-10T22:35:06.919Z,19.00
2018-08-10T22:37:36.565Z,19.20
2018-08-10T22:40:07.329Z,19.30
2018-08-10T22:42:37.497Z,19.30
2018-08-10T22:45:08.094Z,19.20
2018-08-10T22:47:37.836Z,19.00
2018-08-10T22:50:09.175Z,19.00
2018-08-10T22:52:39.398Z,18.90
2018-08-10T22:55:09.494Z,18.80
2018-08-10T22:57:41.355Z,19.00
2018-08-10T23:00:11.156Z,18.60
2018-08-10T23:02:41.002Z,18.50
2018-08-10T23:05:10.854Z,18.60
2018-08-10T23:07:40.603Z,18.60
2018-08-10T23:10:17.284Z,18.70
2018-08-10T23:12:47.193Z,18.70
2018-08-10T23:15:17.122Z,18.40
2018-08-10T23:17:47.364Z,18.30
2018-08-10T23:20:17.134Z,18.80
2018-08-10T23:22:47.363Z,19.00
2018-08-10T23:25:18.035Z,18.70
2018-08-10T23:27:47.913Z,18.60
2018-08-10T23:30:29.731Z,18.80
2018-08-10T23:33:12.593Z,19.00
2018-08-10T23:35:42.417Z,18.80
2018-08-10T23:38:12.126Z,18.60
2018-08-10T23:40:42.217Z,18.60
2018-08-10T23:43:12.673Z,18.80
2018-08-10T23:46:09.471Z,19.10
2018-08-10T23:48:41.862Z,19.20
2018-08-10T23:51:19.025Z,19.10
2018-08-10T23:53:54.510Z,19.20
2018-08-10T23:56:32.089Z,19.30
2018-08-10T23:59:02.166Z,19.30
